createdAt,value
2018-08-19T00:02:27.935Z,18.00
2018-08-19T00:05:10.145Z,18.00
2018-08-19T00:07:39.886Z,18.00
2018-08-19T00:10:09.782Z,18.00
2018-08-19T00:12:45.016Z,18.00
2018-08-19T00:15:15.169Z,18.00
2018-08-19T00:17:45.603Z,18.00
2018-08-19T00:20:15.771Z,18.00
2018-08-19T00:22:45.536Z,18.00
2018-08-19T00:25:26.296Z,18.00
2018-08-19T00:27:56.019Z,18.00
2018-08-19T00:30:25.526Z,18.00
2018-08-19T00:32:54.994Z,18.00
2018-08-19T00:35:25.218Z,18.00
2018-08-19T00:37:54.850Z,18.00
2018-08-19T00:40:24.405Z,18.00
2018-08-19T00:42:54.047Z,18.00
2018-08-19T00:45:23.592Z,18.00
2018-08-19T00:47:53.087Z,18.00
2018-08-19T00:50:23.644Z,18.00
2018-08-19T00:52:53.789Z,18.00
2018-08-19T00:55:23.781Z,18.00
2018-08-19T00:57:59.806Z,18.00
2018-08-19T01:00:30.242Z,18.00
2018-08-19T01:03:01.817Z,18.00
2018-08-19T01:05:32.234Z,17.90
2018-08-19T01:08:02.523Z,17.90
2018-08-19T01:10:32.101Z,18.00
2018-08-19T01:13:01.750Z,18.00
2018-08-19T01:15:31.296Z,18.00
2018-08-19T01:18:00.814Z,18.00
2018-08-19T01:20:31.145Z,18.00
2018-08-19T01:23:00.602Z,18.00
2018-08-19T01:25:30.150Z,18.00
2018-08-19T01:27:59.879Z,18.00
2018-08-19T01:30:29.448Z,18.00
2018-08-19T01:32:59.016Z,18.00
2018-08-19T01:35:33.517Z,18.00
2018-08-19T01:38:03.684Z,18.00
2018-08-19T01:40:33.770Z,18.00
2018-08-19T01:43:05.097Z,18.00
2018-08-19T01:45:35.237Z,18.00
2018-08-19T01:48:04.822Z,18.10
2018-08-19T01:50:34.407Z,18.00
2018-08-19T01:53:03.886Z,18.10
2018-08-19T01:55:33.871Z,18.10
2018-08-19T01:58:03.414Z,18.00
2018-08-19T02:00:32.987Z,18.00
2018-08-19T02:03:04.714Z,18.10
2018-08-19T02:05:35.599Z,18.10
2018-08-19T02:08:05.549Z,18.10
2018-08-19T02:10:35.862Z,18.10
2018-08-19T02:13:05.978Z,18.10
2018-08-19T02:15:36.379Z,18.10
2018-08-19T02:18:06.463Z,18.10
2018-08-19T02:20:39.203Z,18.10
2018-08-19T02:23:10.374Z,18.20
2018-08-19T02:25:43.048Z,18.10
2018-08-19T02:28:13.284Z,18.10
2018-08-19T02:30:51.608Z,18.10
2018-08-19T02:33:22.440Z,18.10
2018-08-19T02:35:58.414Z,18.10
2018-08-19T02:38:27.929Z,18.10
2018-08-19T02:40:58.955Z,18.10
2018-08-19T02:43:30.009Z,18.10
2018-08-19T02:45:59.597Z,18.10
2018-08-19T02:48:44.612Z,18.10
2018-08-19T02:51:18.180Z,18.10
2018-08-19T02:53:50.968Z,18.10
2018-08-19T02:56:21.823Z,18.10
2018-08-19T02:58:52.230Z,18.10
2018-08-19T03:01:22.781Z,18.10
2018-08-19T03:03:53.081Z,18.10
2018-08-19T03:06:23.204Z,18.20
2018-08-19T03:08:59.316Z,18.10
2018-08-19T03:11:29.008Z,18.10
2018-08-19T03:13:59.570Z,18.10
2018-08-19T03:16:30.917Z,18.10
2018-08-19T03:19:00.506Z,18.10
2018-08-19T03:21:30.142Z,18.00
2018-08-19T03:23:59.777Z,18.10
2018-08-19T03:26:30.118Z,18.10
2018-08-19T03:29:05.068Z,18.00
2018-08-19T03:31:35.097Z,18.00
2018-08-19T03:34:04.819Z,18.00
2018-08-19T03:36:34.369Z,18.00
2018-08-19T03:39:13.918Z,18.00
2018-08-19T03:41:43.454Z,18.00
2018-08-19T03:44:13.656Z,18.00
2018-08-19T03:46:43.253Z,18.00
2018-08-19T03:49:13.194Z,18.00
2018-08-19T03:51:43.108Z,17.90
2018-08-19T03:54:13.865Z,17.90
2018-08-19T03:56:44.791Z,17.90
2018-08-19T03:59:15.344Z,17.90
2018-08-19T04:01:46.008Z,17.90
2018-08-19T04:04:17.273Z,17.80
2018-08-19T04:06:47.382Z,17.80
2018-08-19T04:09:16.968Z,17.80
2018-08-19T04:11:57.788Z,17.80
2018-08-19T04:14:29.670Z,17.70
2018-08-19T04:17:01.535Z,17.70
2018-08-19T04:19:31.417Z,17.70
2018-08-19T04:22:02.928Z,17.70
2018-08-19T04:24:33.116Z,17.70
2018-08-19T04:27:07.045Z,17.70
2018-08-19T04:29:37.476Z,17.70
2018-08-19T04:32:11.457Z,17.70
2018-08-19T04:34:41.546Z,17.70
2018-08-19T04:37:11.341Z,17.70
2018-08-19T04:39:40.909Z,17.60
2018-08-19T04:42:11.181Z,17.60
2018-08-19T04:44:40.710Z,17.60
2018-08-19T04:47:22.081Z,17.60
2018-08-19T04:49:52.721Z,17.60
2018-08-19T04:52:23.652Z,17.60
2018-08-19T04:54:54.632Z,17.60
2018-08-19T04:57:25.329Z,17.50
2018-08-19T04:59:55.092Z,17.50
2018-08-19T05:02:26.368Z,17.50
2018-08-19T05:04:57.076Z,17.50
2018-08-19T05:07:26.866Z,17.50
2018-08-19T05:09:57.150Z,17.50
2018-08-19T05:12:26.649Z,17.50
2018-08-19T05:14:56.241Z,17.50
2018-08-19T05:17:25.757Z,17.50
2018-08-19T05:20:07.409Z,17.40
2018-08-19T05:22:36.966Z,17.40
2018-08-19T05:25:08.063Z,17.40
2018-08-19T05:27:38.251Z,17.30
2018-08-19T05:30:08.745Z,17.30
2018-08-19T05:32:42.742Z,17.30
2018-08-19T05:35:12.709Z,17.20
2018-08-19T05:37:42.851Z,17.20
2018-08-19T05:40:13.404Z,17.20
2018-08-19T05:42:45.090Z,17.20
2018-08-19T05:45:15.047Z,17.20
2018-08-19T05:47:50.080Z,17.20
2018-08-19T05:50:20.372Z,17.20
2018-08-19T05:52:50.877Z,17.10
2018-08-19T05:55:20.644Z,17.10
2018-08-19T05:57:50.498Z,17.10
2018-08-19T06:00:23.113Z,17.10
2018-08-19T06:02:54.010Z,17.10
2018-08-19T06:05:25.620Z,17.10
2018-08-19T06:08:01.772Z,17.10
2018-08-19T06:10:31.453Z,17.10
2018-08-19T06:13:01.717Z,17.10
2018-08-19T06:15:31.465Z,17.10
2018-08-19T06:18:01.158Z,17.10
2018-08-19T06:20:32.222Z,17.10
2018-08-19T06:23:02.346Z,17.10
2018-08-19T06:25:32.714Z,17.20
2018-08-19T06:28:02.384Z,17.20
2018-08-19T06:30:34.584Z,17.20
2018-08-19T06:33:05.233Z,17.20
2018-08-19T06:35:35.757Z,17.20
2018-08-19T06:38:06.008Z,17.20
2018-08-19T06:40:36.148Z,17.20
2018-08-19T06:43:05.624Z,17.30
2018-08-19T06:45:35.546Z,17.30
2018-08-19T06:48:06.515Z,17.40
2018-08-19T06:50:37.626Z,17.50
2018-08-19T06:53:07.651Z,17.50
2018-08-19T06:55:37.572Z,17.50
2018-08-19T06:58:07.926Z,17.60
2018-08-19T07:00:37.764Z,17.60
2018-08-19T07:03:07.601Z,17.70
2018-08-19T07:05:37.086Z,17.70
2018-08-19T07:08:06.597Z,17.80
2018-08-19T07:10:36.432Z,17.90
2018-08-19T07:13:08.310Z,17.90
2018-08-19T07:15:39.153Z,17.90
2018-08-19T07:18:10.537Z,17.80
2018-08-19T07:20:41.298Z,17.90
2018-08-19T07:23:11.474Z,18.00
2018-08-19T07:25:42.609Z,18.10
2018-08-19T07:28:13.509Z,18.10
2018-08-19T07:30:44.011Z,18.20
2018-08-19T07:33:14.192Z,18.30
2018-08-19T07:35:44.364Z,18.30
2018-08-19T07:38:14.552Z,18.40
2018-08-19T07:40:44.341Z,18.40
2018-08-19T07:43:14.046Z,18.40
2018-08-19T07:45:43.565Z,18.40
2018-08-19T07:48:13.080Z,18.40
2018-08-19T07:50:42.688Z,18.40
2018-08-19T07:53:12.232Z,18.40
2018-08-19T07:55:41.786Z,18.40
2018-08-19T07:58:11.354Z,18.50
2018-08-19T08:00:41.879Z,18.40
2018-08-19T08:03:13.727Z,18.50
2018-08-19T08:05:47.705Z,18.60
2018-08-19T08:08:17.146Z,18.70
2018-08-19T08:10:46.721Z,18.70
2018-08-19T08:13:16.664Z,18.80
2018-08-19T08:15:51.266Z,18.80
2018-08-19T08:18:20.830Z,18.90
2018-08-19T08:20:51.555Z,18.90
2018-08-19T08:23:23.494Z,19.00
2018-08-19T08:25:53.038Z,19.10
2018-08-19T08:28:22.630Z,19.10
2018-08-19T08:30:52.199Z,19.30
2018-08-19T08:33:21.969Z,19.40
2018-08-19T08:35:56.084Z,19.50
2018-08-19T08:38:25.634Z,19.60
2018-08-19T08:40:55.418Z,19.70
2018-08-19T08:43:24.944Z,19.80
2018-08-19T08:45:56.364Z,19.80
2018-08-19T08:48:26.095Z,19.90
2018-08-19T08:50:55.694Z,19.90
2018-08-19T08:53:28.695Z,20.00
2018-08-19T08:55:58.369Z,19.90
2018-08-19T08:58:27.882Z,20.00
2018-08-19T09:00:57.443Z,20.10
2018-08-19T09:03:26.986Z,20.10
2018-08-19T09:05:56.602Z,20.20
2018-08-19T09:08:26.222Z,20.20
2018-08-19T09:10:56.044Z,20.20
2018-08-19T09:13:25.571Z,20.30
2018-08-19T09:15:55.088Z,20.30
2018-08-19T09:18:24.590Z,20.40
2018-08-19T09:20:54.105Z,20.50
2018-08-19T09:23:23.891Z,20.60
2018-08-19T09:25:53.523Z,20.60
2018-08-19T09:28:23.076Z,20.50
2018-08-19T09:30:52.581Z,20.50
2018-08-19T09:33:22.077Z,20.60
2018-08-19T09:35:51.540Z,20.60
2018-08-19T09:38:22.727Z,20.60
2018-08-19T09:40:52.676Z,20.70
2018-08-19T09:43:22.149Z,20.80
2018-08-19T09:45:51.698Z,20.90
2018-08-19T09:48:21.186Z,21.00
2018-08-19T09:50:50.703Z,21.10
2018-08-19T09:53:20.242Z,21.20
2018-08-19T09:55:55.512Z,21.30
2018-08-19T09:58:24.986Z,21.40
2018-08-19T10:00:59.693Z,21.60
2018-08-19T10:03:31.356Z,21.70
2018-08-19T10:06:01.117Z,21.70
2018-08-19T10:08:30.633Z,21.80
2018-08-19T10:11:00.162Z,21.80
2018-08-19T10:13:29.695Z,21.90
2018-08-19T10:15:59.196Z,21.90
2018-08-19T10:18:28.719Z,21.90
2018-08-19T10:21:03.272Z,21.80
2018-08-19T10:23:32.800Z,21.80
2018-08-19T10:26:02.271Z,21.80
2018-08-19T10:28:31.765Z,21.90
2018-08-19T10:31:01.342Z,21.80
2018-08-19T10:33:30.882Z,21.70
2018-08-19T10:36:00.423Z,21.60
2018-08-19T10:38:29.903Z,21.60
2018-08-19T10:41:03.616Z,21.70
2018-08-19T10:43:33.188Z,21.60
2018-08-19T10:46:02.722Z,21.60
2018-08-19T10:48:32.377Z,21.60
2018-08-19T10:51:03.149Z,21.60
2018-08-19T10:53:32.683Z,21.70
2018-08-19T10:56:03.114Z,21.80
2018-08-19T10:58:32.708Z,21.80
2018-08-19T11:01:02.286Z,21.90
2018-08-19T11:03:31.794Z,21.90
2018-08-19T11:06:01.308Z,22.00
2018-08-19T11:08:30.944Z,22.00
2018-08-19T11:11:01.272Z,22.10
2018-08-19T11:13:30.952Z,22.20
2018-08-19T11:16:00.831Z,22.40
2018-08-19T11:18:48.271Z,22.50
2018-08-19T11:21:28.133Z,22.50
2018-08-19T11:23:58.776Z,22.50
2018-08-19T11:26:28.385Z,22.70
2018-08-19T11:28:59.615Z,22.80
2018-08-19T11:31:37.368Z,22.80
2018-08-19T11:34:08.224Z,22.80
2018-08-19T11:36:44.179Z,22.70
2018-08-19T11:39:15.330Z,22.70
2018-08-19T11:41:44.874Z,22.60
2018-08-19T11:44:16.816Z,22.50
2018-08-19T11:46:46.421Z,22.50
2018-08-19T11:49:19.178Z,22.40
2018-08-19T11:51:53.595Z,22.30
2018-08-19T11:54:23.971Z,22.30
2018-08-19T11:57:00.388Z,22.30
2018-08-19T11:59:35.149Z,22.30
2018-08-19T12:02:05.852Z,22.40
2018-08-19T12:04:35.333Z,22.20
2018-08-19T12:07:04.932Z,22.30
2018-08-19T12:09:34.453Z,22.30
2018-08-19T12:12:04.040Z,22.50
2018-08-19T12:14:34.904Z,22.70
2018-08-19T12:17:09.004Z,22.90
2018-08-19T12:19:39.578Z,23.10
2018-08-19T12:22:09.397Z,23.20
2018-08-19T12:24:43.752Z,23.30
2018-08-19T12:27:14.561Z,23.40
2018-08-19T12:29:44.778Z,23.40
2018-08-19T12:32:25.019Z,23.50
2018-08-19T12:34:57.726Z,23.50
2018-08-19T12:37:28.479Z,23.50
2018-08-19T12:39:58.471Z,23.50
2018-08-19T12:42:28.717Z,23.50
2018-08-19T12:45:03.509Z,23.60
2018-08-19T12:47:33.042Z,23.70
2018-08-19T12:50:07.375Z,23.70
2018-08-19T12:52:36.914Z,23.70
2018-08-19T12:55:08.016Z,23.70
2018-08-19T12:57:38.545Z,23.80
2018-08-19T13:00:19.729Z,23.80
2018-08-19T13:02:51.595Z,23.90
2018-08-19T13:05:24.648Z,24.00
2018-08-19T13:07:54.529Z,23.70
2018-08-19T13:10:24.431Z,23.80
2018-08-19T13:12:55.065Z,23.80
2018-08-19T13:15:26.171Z,23.70
2018-08-19T13:17:55.776Z,23.60
2018-08-19T13:20:25.339Z,23.70
2018-08-19T13:23:00.076Z,23.80
2018-08-19T13:25:29.961Z,23.80
2018-08-19T13:27:59.467Z,23.80
2018-08-19T13:30:29.080Z,23.70
2018-08-19T13:32:58.698Z,23.60
2018-08-19T13:35:28.248Z,23.70
2018-08-19T13:37:57.798Z,23.90
2018-08-19T13:40:27.278Z,24.10
2018-08-19T13:42:56.816Z,24.10
2018-08-19T13:45:27.462Z,24.00
2018-08-19T13:47:56.943Z,24.00
2018-08-19T13:50:26.449Z,24.10
2018-08-19T13:52:55.962Z,24.20
2018-08-19T13:55:25.525Z,24.30
2018-08-19T13:57:55.028Z,24.30
2018-08-19T14:00:28.711Z,24.30
2018-08-19T14:02:58.336Z,24.20
2018-08-19T14:05:27.828Z,24.10
2018-08-19T14:07:58.498Z,24.20
2018-08-19T14:10:28.090Z,24.20
2018-08-19T14:12:57.644Z,24.20
2018-08-19T14:15:27.163Z,24.20
2018-08-19T14:17:56.721Z,24.00
2018-08-19T14:20:26.169Z,24.00
2018-08-19T14:22:55.759Z,23.90
2018-08-19T14:25:25.295Z,23.90
2018-08-19T14:27:54.810Z,23.90
2018-08-19T14:30:24.537Z,23.70
2018-08-19T14:32:54.335Z,23.80
2018-08-19T14:35:23.841Z,23.70
2018-08-19T14:37:53.381Z,23.60
2018-08-19T14:40:23.037Z,23.70
2018-08-19T14:42:52.493Z,23.70
2018-08-19T14:45:21.977Z,23.70
2018-08-19T14:47:51.544Z,23.60
2018-08-19T14:50:21.260Z,23.50
2018-08-19T14:52:50.756Z,23.60
2018-08-19T14:55:20.344Z,23.50
2018-08-19T14:57:50.569Z,23.60
2018-08-19T15:00:20.188Z,23.60
2018-08-19T15:02:49.766Z,23.60
2018-08-19T15:05:20.777Z,23.50
2018-08-19T15:07:50.346Z,23.40
2018-08-19T15:10:22.704Z,23.40
2018-08-19T15:12:52.608Z,23.20
2018-08-19T15:15:22.120Z,23.10
2018-08-19T15:17:56.847Z,23.00
2018-08-19T15:20:32.051Z,23.00
2018-08-19T15:23:12.845Z,22.90
2018-08-19T15:25:42.375Z,22.90
2018-08-19T15:28:12.582Z,22.80
2018-08-19T15:30:42.866Z,22.80
2018-08-19T15:33:13.455Z,22.60
2018-08-19T15:35:43.937Z,22.70
2018-08-19T15:38:13.601Z,22.50
2018-08-19T15:40:47.122Z,22.50
2018-08-19T15:43:17.076Z,22.40
2018-08-19T15:45:46.656Z,22.40
2018-08-19T15:48:16.216Z,22.30
2018-08-19T15:50:45.798Z,22.20
2018-08-19T15:53:17.418Z,22.10
2018-08-19T15:55:47.230Z,22.10
2018-08-19T15:58:16.772Z,22.10
2018-08-19T16:00:46.336Z,22.00
2018-08-19T16:03:15.839Z,22.00
2018-08-19T16:05:45.394Z,22.00
2018-08-19T16:08:14.901Z,21.90
2018-08-19T16:10:44.457Z,22.00
2018-08-19T16:13:14.008Z,22.00
2018-08-19T16:15:43.526Z,22.00
2018-08-19T16:18:13.158Z,22.00
2018-08-19T16:20:49.244Z,22.00
2018-08-19T16:23:18.791Z,22.00
2018-08-19T16:25:48.358Z,22.00
2018-08-19T16:28:17.959Z,22.00
2018-08-19T16:30:47.468Z,21.90
2018-08-19T16:33:17.018Z,21.80
2018-08-19T16:35:46.576Z,21.80
2018-08-19T16:38:16.201Z,21.80
2018-08-19T16:40:45.806Z,21.80
2018-08-19T16:43:15.335Z,21.80
2018-08-19T16:45:44.903Z,21.70
2018-08-19T16:48:14.455Z,21.70
2018-08-19T16:50:44.069Z,21.60
2018-08-19T16:53:13.913Z,21.60
2018-08-19T16:55:43.485Z,21.60
2018-08-19T16:58:13.043Z,21.50
2018-08-19T17:00:42.587Z,21.40
2018-08-19T17:03:27.096Z,21.20
2018-08-19T17:05:56.948Z,21.20
2018-08-19T17:08:26.585Z,21.20
2018-08-19T17:10:57.087Z,21.10
2018-08-19T17:13:26.558Z,21.10
2018-08-19T17:15:56.152Z,21.10
2018-08-19T17:18:25.670Z,21.10
2018-08-19T17:20:55.215Z,21.00
2018-08-19T17:23:25.401Z,21.00
2018-08-19T17:25:54.922Z,21.00
2018-08-19T17:28:25.569Z,21.00
2018-08-19T17:30:55.708Z,21.00
2018-08-19T17:33:30.262Z,20.90
2018-08-19T17:35:59.831Z,20.90
2018-08-19T17:38:33.024Z,20.90
2018-08-19T17:41:04.389Z,20.80
2018-08-19T17:43:39.261Z,20.80
2018-08-19T17:46:13.718Z,20.70
2018-08-19T17:48:44.470Z,20.70
2018-08-19T17:51:26.086Z,20.60
2018-08-19T17:53:55.670Z,20.50
2018-08-19T17:56:25.294Z,20.40
2018-08-19T17:58:54.865Z,20.30
2018-08-19T18:01:24.501Z,20.30
2018-08-19T18:03:54.057Z,20.20
2018-08-19T18:06:23.600Z,20.20
2018-08-19T18:08:53.814Z,20.00
2018-08-19T18:11:23.358Z,19.90
2018-08-19T18:13:52.850Z,19.80
2018-08-19T18:16:22.456Z,19.70
2018-08-19T18:18:52.136Z,19.60
2018-08-19T18:21:21.770Z,19.40
2018-08-19T18:23:51.308Z,19.30
2018-08-19T18:26:20.856Z,19.30
2018-08-19T18:28:50.398Z,19.10
2018-08-19T18:31:23.521Z,19.10
2018-08-19T18:33:59.267Z,19.00
2018-08-19T18:36:30.572Z,18.90
2018-08-19T18:39:00.448Z,18.90
2018-08-19T18:41:39.524Z,18.80
2018-08-19T18:44:11.129Z,18.80
2018-08-19T18:46:40.701Z,18.70
2018-08-19T18:49:11.549Z,18.70
2018-08-19T18:51:42.248Z,18.70
2018-08-19T18:54:19.547Z,18.70
2018-08-19T18:56:49.424Z,18.70
2018-08-19T18:59:18.896Z,18.70
2018-08-19T19:01:48.454Z,18.60
2018-08-19T19:04:17.996Z,18.60
2018-08-19T19:06:47.524Z,18.60
2018-08-19T19:09:17.042Z,18.50
2018-08-19T19:11:49.283Z,18.50
2018-08-19T19:14:19.533Z,18.50
2018-08-19T19:16:51.482Z,18.40
2018-08-19T19:19:21.148Z,18.40
2018-08-19T19:21:58.828Z,18.40
2018-08-19T19:24:33.585Z,18.30
2018-08-19T19:27:03.127Z,18.30
2018-08-19T19:29:32.670Z,18.30
2018-08-19T19:32:12.084Z,18.20
2018-08-19T19:34:41.613Z,18.20
2018-08-19T19:37:11.511Z,18.10
2018-08-19T19:39:41.080Z,18.10
2018-08-19T19:42:11.581Z,18.00
2018-08-19T19:44:41.113Z,18.00
2018-08-19T19:47:10.923Z,17.90
2018-08-19T19:49:48.455Z,17.90
2018-08-19T19:52:18.014Z,17.90
2018-08-19T19:54:47.549Z,17.80
2018-08-19T19:57:17.111Z,17.80
2018-08-19T19:59:46.617Z,17.70
2018-08-19T20:02:21.446Z,17.70
2018-08-19T20:04:50.998Z,17.80
2018-08-19T20:07:20.515Z,17.80
2018-08-19T20:09:50.009Z,17.70
2018-08-19T20:12:24.615Z,17.70
2018-08-19T20:14:54.364Z,17.70
2018-08-19T20:17:23.836Z,17.70
2018-08-19T20:19:53.379Z,17.70
2018-08-19T20:22:22.926Z,17.60
2018-08-19T20:24:52.354Z,17.60
2018-08-19T20:27:21.862Z,17.60
2018-08-19T20:29:52.729Z,17.60
2018-08-19T20:32:22.303Z,17.60
2018-08-19T20:34:52.211Z,17.60
2018-08-19T20:37:23.803Z,17.60
2018-08-19T20:39:53.761Z,17.50
2018-08-19T20:42:23.294Z,17.50
2018-08-19T20:44:52.778Z,17.50
2018-08-19T20:47:22.280Z,17.50
2018-08-19T20:49:51.784Z,17.50
2018-08-19T20:52:40.773Z,17.50
2018-08-19T20:55:11.000Z,17.50
2018-08-19T20:57:40.673Z,17.50
2018-08-19T21:00:10.544Z,17.50
2018-08-19T21:02:40.018Z,17.50
2018-08-19T21:05:09.518Z,17.50
2018-08-19T21:07:39.139Z,17.40
2018-08-19T21:10:08.978Z,17.40
2018-08-19T21:12:38.570Z,17.40
2018-08-19T21:15:08.137Z,17.40
2018-08-19T21:17:37.606Z,17.40
2018-08-19T21:20:07.135Z,17.40
2018-08-19T21:22:36.689Z,17.40
2018-08-19T21:25:06.527Z,17.40
2018-08-19T21:27:35.993Z,17.40
2018-08-19T21:30:05.736Z,17.40
2018-08-19T21:32:35.178Z,17.40
2018-08-19T21:35:05.364Z,17.30
2018-08-19T21:37:35.928Z,17.30
2018-08-19T21:40:06.057Z,17.30
2018-08-19T21:42:47.381Z,17.20
2018-08-19T21:45:16.971Z,17.20
2018-08-19T21:47:46.488Z,17.20
2018-08-19T21:50:15.994Z,17.20
2018-08-19T21:53:04.388Z,17.20
2018-08-19T21:55:35.203Z,17.20
2018-08-19T21:58:05.303Z,17.10
2018-08-19T22:00:38.663Z,17.10
2018-08-19T22:03:18.582Z,17.00
2018-08-19T22:05:49.140Z,17.00
2018-08-19T22:08:18.808Z,17.00
2018-08-19T22:10:48.954Z,17.00
2018-08-19T22:13:18.552Z,17.00
2018-08-19T22:15:48.539Z,17.00
2018-08-19T22:18:20.788Z,16.90
2018-08-19T22:21:03.204Z,16.90
2018-08-19T22:23:38.205Z,16.90
2018-08-19T22:26:08.149Z,16.90
2018-08-19T22:28:37.642Z,16.90
2018-08-19T22:31:19.290Z,16.80
2018-08-19T22:33:55.027Z,16.80
2018-08-19T22:36:25.256Z,16.80
2018-08-19T22:38:56.381Z,16.80
2018-08-19T22:41:28.523Z,16.80
2018-08-19T22:43:58.860Z,16.80
2018-08-19T22:46:29.488Z,16.80
2018-08-19T22:48:59.757Z,16.80
2018-08-19T22:51:34.375Z,16.80
2018-08-19T22:54:04.855Z,16.80
2018-08-19T22:56:35.466Z,16.80
2018-08-19T22:59:05.015Z,16.80
2018-08-19T23:01:39.959Z,16.80
2018-08-19T23:04:10.211Z,16.80
2018-08-19T23:06:40.588Z,16.80
2018-08-19T23:09:11.058Z,16.80
2018-08-19T23:11:48.436Z,16.80
2018-08-19T23:14:29.291Z,16.80
2018-08-19T23:16:59.998Z,16.80
2018-08-19T23:19:31.608Z,16.80
2018-08-19T23:22:01.372Z,16.80
2018-08-19T23:24:31.734Z,16.90
2018-08-19T23:27:02.567Z,16.80
2018-08-19T23:29:32.356Z,16.90
2018-08-19T23:32:02.488Z,16.90
2018-08-19T23:34:32.938Z,16.90
2018-08-19T23:37:04.499Z,16.90
2018-08-19T23:39:34.831Z,16.90
2018-08-19T23:42:05.764Z,16.90
2018-08-19T23:44:36.733Z,16.90
2018-08-19T23:47:06.546Z,16.90
2018-08-19T23:49:37.095Z,16.80
2018-08-19T23:52:07.174Z,16.90
2018-08-19T23:54:38.877Z,16.80
2018-08-19T23:57:10.090Z,16.80
2018-08-19T23:59:39.667Z,16.80
